Overview Statistics Trail Chart Weather Telemetry Raw packets
 

This is the latest recevied weather packets stored in our database for station/object GBTWP-2. If no packets are shown the sender has not sent any weather packets the latest 10 day(s).

<< 100 101 102 103 104 105 106 >>
Time Temp. Humidity Pressure Rain* Wind** Luminosity Snow
1787925720 19.44° C 75% 1024.8 hPa 0 mm - 339 W/m² -
1787925420 18.33° C 77% 1025 hPa 0 mm - 328 W/m² -
1787925120 18.33° C 78% 1024.8 hPa 0 mm - 313 W/m² -
1787924818 18.89° C 77% 1024.9 hPa 0 mm - 298 W/m² -
1787924518 18.33° C 79% 1024.8 hPa 0 mm - 285 W/m² -
1787924217 18.89° C 78% 1024.7 hPa 0 mm - 255 W/m² -
1787923920 18.33° C 80% 1025 hPa 0 mm - 217 W/m² -
1787923620 17.78° C 81% 1025 hPa 0 mm - 187 W/m² -
1787923323 17.78° C 81% 1024.7 hPa 0 mm - 161 W/m² -
1787923020 17.22° C 83% 1025 hPa 0 mm - 146 W/m² -
1787922720 17.22° C 84% 1024.9 hPa 0 mm - 130 W/m² -
1787922420 16.67° C 86% 1025.1 hPa 0 mm - 116 W/m² -
1787922120 16.67° C 87% 1025 hPa 0 mm - 104 W/m² -
1787921823 16.11° C 88% 1025 hPa 0 mm - 93 W/m² -
1787921520 16.11° C 90% 1024.8 hPa 0 mm - 85 W/m² -
1787921220 15.56° C 90% 1024.8 hPa 0 mm - 78 W/m² -
1787920920 15.56° C 91% 1024.7 hPa 0 mm - 71 W/m² -
1787920620 15.56° C 93% 1024.5 hPa 0 mm - 65 W/m² -
1787920325 15° C 94% 1024.5 hPa 0 mm - 59 W/m² -
1787920020 14.44° C 95% 1024.4 hPa 0 mm - 56 W/m² -
1787919720 13.89° C 95% 1024.6 hPa 0 mm - 54 W/m² -
1787919420 13.89° C 95% 1024.6 hPa 0 mm - 56 W/m² -
1787919120 13.33° C 95% 1024.7 hPa 0 mm - 49 W/m² -
1787918820 13.33° C 95% 1024.5 hPa 0 mm - 45 W/m² -
1787918519 13.33° C 95% 1024.5 hPa 0 mm - 43 W/m² -

* Rain latest hour (hover to see other rain measurements)
** Current wind speed in m/s (hover to see current wind gust speed)